sensor_id;sensor_type;location;lat;lon;timestamp;pressure;altitude;pressure_sealevel;temperature;humidity
59409;BME280;45213;32.654;-115.458;2023-04-07T00:01:43;101455.81;;;25.69;10.73
59409;BME280;45213;32.654;-115.458;2023-04-07T00:04:10;101453.00;;;25.51;10.36
59409;BME280;45213;32.654;-115.458;2023-04-07T00:06:37;101448.25;;;25.15;9.98
59409;BME280;45213;32.654;-115.458;2023-04-07T00:09:03;101446.91;;;25.05;11.02
59409;BME280;45213;32.654;-115.458;2023-04-07T00:11:30;101447.09;;;25.00;10.98
59409;BME280;45213;32.654;-115.458;2023-04-07T00:13:56;101442.94;;;25.15;10.42
59409;BME280;45213;32.654;-115.458;2023-04-07T00:16:23;101440.06;;;25.21;10.99
59409;BME280;45213;32.654;-115.458;2023-04-07T00:18:50;101439.78;;;25.06;11.16
59409;BME280;45213;32.654;-115.458;2023-04-07T00:21:16;101447.16;;;24.77;11.19
59409;BME280;45213;32.654;-115.458;2023-04-07T00:23:43;101442.69;;;24.99;10.98
59409;BME280;45213;32.654;-115.458;2023-04-07T00:26:10;101441.03;;;24.97;11.05
59409;BME280;45213;32.654;-115.458;2023-04-07T00:28:38;101441.78;;;24.78;10.30
59409;BME280;45213;32.654;-115.458;2023-04-07T00:31:04;101445.25;;;24.80;10.92
59409;BME280;45213;32.654;-115.458;2023-04-07T00:33:31;101444.56;;;24.75;11.00
59409;BME280;45213;32.654;-115.458;2023-04-07T00:35:57;101435.88;;;24.47;10.86
59409;BME280;45213;32.654;-115.458;2023-04-07T00:38:24;101431.84;;;24.60;10.89
59409;BME280;45213;32.654;-115.458;2023-04-07T00:40:57;101439.44;;;24.47;10.65
59409;BME280;45213;32.654;-115.458;2023-04-07T00:43:24;101439.59;;;24.43;10.65
59409;BME280;45213;32.654;-115.458;2023-04-07T00:45:52;101430.09;;;24.35;10.61
59409;BME280;45213;32.654;-115.458;2023-04-07T00:48:19;101431.28;;;24.28;11.16
59409;BME280;45213;32.654;-115.458;2023-04-07T00:50:46;101433.91;;;24.05;10.46
59409;BME280;45213;32.654;-115.458;2023-04-07T00:53:13;101436.34;;;23.87;10.96
59409;BME280;45213;32.654;-115.458;2023-04-07T00:55:39;101433.84;;;23.83;10.45
59409;BME280;45213;32.654;-115.458;2023-04-07T00:58:06;101429.81;;;23.71;10.67
59409;BME280;45213;32.654;-115.458;2023-04-07T01:00:37;101436.84;;;23.72;10.96
59409;BME280;45213;32.654;-115.458;2023-04-07T01:03:09;101431.47;;;23.73;10.98
59409;BME280;45213;32.654;-115.458;2023-04-07T01:05:59;101431.22;;;23.81;10.40
59409;BME280;45213;32.654;-115.458;2023-04-07T01:08:46;101431.97;;;23.60;10.77
59409;BME280;45213;32.654;-115.458;2023-04-07T01:11:36;101418.94;;;23.52;10.58
59409;BME280;45213;32.654;-115.458;2023-04-07T01:14:09;101430.53;;;23.49;10.89
59409;BME280;45213;32.654;-115.458;2023-04-07T01:16:48;101432.25;;;23.50;10.89
59409;BME280;45213;32.654;-115.458;2023-04-07T01:19:35;101428.03;;;23.45;11.25
59409;BME280;45213;32.654;-115.458;2023-04-07T01:22:09;101429.38;;;23.31;10.80
59409;BME280;45213;32.654;-115.458;2023-04-07T01:30:00;101424.22;;;23.00;10.91
59409;BME280;45213;32.654;-115.458;2023-04-07T01:32:29;101425.31;;;22.93;10.90
59409;BME280;45213;32.654;-115.458;2023-04-07T01:34:57;101420.25;;;22.85;10.95
59409;BME280;45213;32.654;-115.458;2023-04-07T01:37:26;101418.66;;;22.80;11.24
59409;BME280;45213;32.654;-115.458;2023-04-07T01:39:53;101424.16;;;22.73;11.27
59409;BME280;45213;32.654;-115.458;2023-04-07T01:42:20;101425.31;;;22.65;11.11
59409;BME280;45213;32.654;-115.458;2023-04-07T01:44:48;101419.91;;;22.68;11.55
59409;BME280;45213;32.654;-115.458;2023-04-07T01:47:16;101426.47;;;22.56;11.55
59409;BME280;45213;32.654;-115.458;2023-04-07T01:49:45;101418.91;;;22.44;12.31
59409;BME280;45213;32.654;-115.458;2023-04-07T01:52:13;101429.84;;;22.31;11.51
59409;BME280;45213;32.654;-115.458;2023-04-07T01:54:40;101411.63;;;22.19;12.06
59409;BME280;45213;32.654;-115.458;2023-04-07T01:57:08;101430.22;;;22.18;11.94
59409;BME280;45213;32.654;-115.458;2023-04-07T01:59:34;101427.72;;;22.13;11.71
59409;BME280;45213;32.654;-115.458;2023-04-07T02:02:03;101430.53;;;22.07;11.57
59409;BME280;45213;32.654;-115.458;2023-04-07T02:04:34;101432.47;;;22.02;12.03
59409;BME280;45213;32.654;-115.458;2023-04-07T02:07:24;101428.34;;;21.92;11.96
59409;BME280;45213;32.654;-115.458;2023-04-07T02:09:56;101428.66;;;21.79;12.25
59409;BME280;45213;32.654;-115.458;2023-04-07T02:12:26;101425.38;;;21.71;12.57
59409;BME280;45213;32.654;-115.458;2023-04-07T02:15:06;101429.13;;;21.62;12.31
59409;BME280;45213;32.654;-115.458;2023-04-07T02:17:37;101423.16;;;21.54;12.45
59409;BME280;45213;32.654;-115.458;2023-04-07T02:20:07;101424.19;;;21.48;12.67
59409;BME280;45213;32.654;-115.458;2023-04-07T02:22:38;101421.72;;;21.42;12.80
59409;BME280;45213;32.654;-115.458;2023-04-07T02:25:28;101429.78;;;21.36;13.30
59409;BME280;45213;32.654;-115.458;2023-04-07T02:27:57;101426.38;;;21.31;14.07
59409;BME280;45213;32.654;-115.458;2023-04-07T02:30:25;101425.69;;;21.23;14.05
59409;BME280;45213;32.654;-115.458;2023-04-07T02:32:52;101423.13;;;21.20;14.04
59409;BME280;45213;32.654;-115.458;2023-04-07T02:35:19;101423.28;;;21.14;13.98
59409;BME280;45213;32.654;-115.458;2023-04-07T02:37:46;101425.41;;;20.99;15.71
59409;BME280;45213;32.654;-115.458;2023-04-07T02:40:13;101422.13;;;20.88;15.31
59409;BME280;45213;32.654;-115.458;2023-04-07T02:42:41;101427.00;;;20.69;14.30
59409;BME280;45213;32.654;-115.458;2023-04-07T02:45:08;101430.59;;;20.65;15.52
59409;BME280;45213;32.654;-115.458;2023-04-07T02:47:37;101432.53;;;20.58;16.45
59409;BME280;45213;32.654;-115.458;2023-04-07T02:50:05;101435.25;;;20.52;16.09
59409;BME280;45213;32.654;-115.458;2023-04-07T02:52:34;101428.28;;;20.48;16.56
59409;BME280;45213;32.654;-115.458;2023-04-07T02:55:04;101428.69;;;20.30;15.24
59409;BME280;45213;32.654;-115.458;2023-04-07T02:57:33;101430.50;;;20.28;15.50
59409;BME280;45213;32.654;-115.458;2023-04-07T03:00:03;101429.44;;;20.36;15.69
59409;BME280;45213;32.654;-115.458;2023-04-07T03:02:45;101433.03;;;20.32;16.82
59409;BME280;45213;32.654;-115.458;2023-04-07T03:05:13;101438.38;;;20.31;16.10
59409;BME280;45213;32.654;-115.458;2023-04-07T03:07:39;101439.53;;;20.17;17.64
59409;BME280;45213;32.654;-115.458;2023-04-07T03:10:08;101453.91;;;20.04;16.64
59409;BME280;45213;32.654;-115.458;2023-04-07T03:12:35;101449.66;;;19.94;16.55
59409;BME280;45213;32.654;-115.458;2023-04-07T03:15:02;101448.97;;;19.86;16.97
59409;BME280;45213;32.654;-115.458;2023-04-07T03:17:30;101457.00;;;19.79;17.38
59409;BME280;45213;32.654;-115.458;2023-04-07T03:19:56;101454.38;;;19.79;17.17
59409;BME280;45213;32.654;-115.458;2023-04-07T03:22:24;101458.84;;;19.76;18.23
59409;BME280;45213;32.654;-115.458;2023-04-07T03:24:53;101458.09;;;19.66;18.33
59409;BME280;45213;32.654;-115.458;2023-04-07T03:27:23;101459.09;;;19.60;16.28
59409;BME280;45213;32.654;-115.458;2023-04-07T03:29:49;101471.38;;;19.61;17.70
59409;BME280;45213;32.654;-115.458;2023-04-07T03:32:16;101467.19;;;19.50;17.41
59409;BME280;45213;32.654;-115.458;2023-04-07T03:34:43;101469.72;;;19.56;17.06
59409;BME280;45213;32.654;-115.458;2023-04-07T03:37:12;101469.97;;;19.42;16.80
59409;BME280;45213;32.654;-115.458;2023-04-07T03:39:40;101471.06;;;19.30;17.81
59409;BME280;45213;32.654;-115.458;2023-04-07T03:42:27;101471.00;;;19.33;17.60
59409;BME280;45213;32.654;-115.458;2023-04-07T03:45:00;101470.09;;;19.34;18.61
59409;BME280;45213;32.654;-115.458;2023-04-07T03:47:27;101472.94;;;19.22;17.38
59409;BME280;45213;32.654;-115.458;2023-04-07T03:49:58;101472.94;;;19.22;17.62
59409;BME280;45213;32.654;-115.458;2023-04-07T03:52:27;101474.78;;;19.15;16.62
59409;BME280;45213;32.654;-115.458;2023-04-07T03:55:00;101474.00;;;19.09;16.45
59409;BME280;45213;32.654;-115.458;2023-04-07T03:57:30;101484.66;;;19.03;16.75
59409;BME280;45213;32.654;-115.458;2023-04-07T03:59:57;101487.41;;;18.96;16.97
59409;BME280;45213;32.654;-115.458;2023-04-07T04:02:24;101499.78;;;18.91;16.70
59409;BME280;45213;32.654;-115.458;2023-04-07T04:04:53;101496.19;;;18.95;16.99
59409;BME280;45213;32.654;-115.458;2023-04-07T04:07:22;101492.69;;;18.96;17.19
59409;BME280;45213;32.654;-115.458;2023-04-07T04:09:52;101502.28;;;19.01;17.74
59409;BME280;45213;32.654;-115.458;2023-04-07T04:12:18;101505.09;;;18.88;17.88
59409;BME280;45213;32.654;-115.458;2023-04-07T04:14:57;101507.88;;;18.81;17.62
59409;BME280;45213;32.654;-115.458;2023-04-07T04:17:24;101504.41;;;18.71;18.14
59409;BME280;45213;32.654;-115.458;2023-04-07T04:19:52;101513.19;;;18.74;18.56
59409;BME280;45213;32.654;-115.458;2023-04-07T04:22:24;101519.31;;;18.75;20.00
59409;BME280;45213;32.654;-115.458;2023-04-07T04:24:55;101515.94;;;18.65;20.42
59409;BME280;45213;32.654;-115.458;2023-04-07T04:27:23;101514.22;;;18.63;20.97
59409;BME280;45213;32.654;-115.458;2023-04-07T04:29:57;101511.72;;;18.52;20.75
59409;BME280;45213;32.654;-115.458;2023-04-07T04:32:33;101514.50;;;18.38;20.62
59409;BME280;45213;32.654;-115.458;2023-04-07T04:35:01;101518.94;;;18.36;20.11
59409;BME280;45213;32.654;-115.458;2023-04-07T04:37:30;101514.56;;;18.35;20.34
59409;BME280;45213;32.654;-115.458;2023-04-07T04:39:58;101511.09;;;18.30;21.42
59409;BME280;45213;32.654;-115.458;2023-04-07T04:42:24;101514.75;;;18.16;21.16
59409;BME280;45213;32.654;-115.458;2023-04-07T04:44:55;101513.88;;;18.16;21.52
59409;BME280;45213;32.654;-115.458;2023-04-07T04:47:22;101514.81;;;18.10;21.99
59409;BME280;45213;32.654;-115.458;2023-04-07T04:49:50;101514.94;;;17.98;21.50
59409;BME280;45213;32.654;-115.458;2023-04-07T04:52:16;101509.75;;;17.92;21.37
59409;BME280;45213;32.654;-115.458;2023-04-07T04:54:46;101516.78;;;17.90;22.10
59409;BME280;45213;32.654;-115.458;2023-04-07T04:57:13;101517.69;;;17.87;22.07
59409;BME280;45213;32.654;-115.458;2023-04-07T04:59:40;101511.56;;;17.84;22.70
59409;BME280;45213;32.654;-115.458;2023-04-07T05:02:07;101520.38;;;17.78;21.47
59409;BME280;45213;32.654;-115.458;2023-04-07T05:04:34;101516.84;;;17.79;22.71
59409;BME280;45213;32.654;-115.458;2023-04-07T05:07:15;101519.56;;;17.71;22.88
59409;BME280;45213;32.654;-115.458;2023-04-07T05:09:42;101519.59;;;17.67;23.22
59409;BME280;45213;32.654;-115.458;2023-04-07T05:12:08;101522.25;;;17.67;23.62
59409;BME280;45213;32.654;-115.458;2023-04-07T05:14:41;101528.47;;;17.55;23.75
59409;BME280;45213;32.654;-115.458;2023-04-07T05:17:08;101528.53;;;17.49;22.41
59409;BME280;45213;32.654;-115.458;2023-04-07T05:19:35;101526.75;;;17.49;23.85
59409;BME280;45213;32.654;-115.458;2023-04-07T05:22:11;101530.31;;;17.44;23.96
59409;BME280;45213;32.654;-115.458;2023-04-07T05:24:47;101525.06;;;17.39;23.85
59409;BME280;45213;32.654;-115.458;2023-04-07T05:27:14;101527.81;;;17.28;23.45
59409;BME280;45213;32.654;-115.458;2023-04-07T05:29:42;101522.53;;;17.28;23.60
59409;BME280;45213;32.654;-115.458;2023-04-07T05:32:18;101527.84;;;17.22;23.80
59409;BME280;45213;32.654;-115.458;2023-04-07T05:34:46;101517.34;;;17.19;23.70
59409;BME280;45213;32.654;-115.458;2023-04-07T05:37:13;101523.47;;;17.17;25.17
59409;BME280;45213;32.654;-115.458;2023-04-07T05:39:41;101517.41;;;17.10;25.61
59409;BME280;45213;32.654;-115.458;2023-04-07T05:42:11;101512.13;;;17.10;25.57
59409;BME280;45213;32.654;-115.458;2023-04-07T05:44:38;101505.13;;;17.04;25.92
59409;BME280;45213;32.654;-115.458;2023-04-07T05:47:05;101506.94;;;16.99;25.91
59409;BME280;45213;32.654;-115.458;2023-04-07T05:49:36;101511.34;;;16.91;25.06
59409;BME280;45213;32.654;-115.458;2023-04-07T05:52:06;101507.00;;;16.85;25.36
59409;BME280;45213;32.654;-115.458;2023-04-07T05:54:41;101507.03;;;16.76;25.04
59409;BME280;45213;32.654;-115.458;2023-04-07T05:57:11;101505.28;;;16.83;25.38
59409;BME280;45213;32.654;-115.458;2023-04-07T05:59:42;101500.03;;;16.81;25.73
59409;BME280;45213;32.654;-115.458;2023-04-07T06:02:10;101496.53;;;16.79;26.25
59409;BME280;45213;32.654;-115.458;2023-04-07T06:04:38;101497.38;;;16.74;26.20
59409;BME280;45213;32.654;-115.458;2023-04-07T06:07:06;101498.28;;;16.66;26.43
59409;BME280;45213;32.654;-115.458;2023-04-07T06:09:32;101490.44;;;16.59;26.83
59409;BME280;45213;32.654;-115.458;2023-04-07T06:11:59;101489.56;;;16.55;26.83
59409;BME280;45213;32.654;-115.458;2023-04-07T06:14:26;101482.63;;;16.46;27.38
59409;BME280;45213;32.654;-115.458;2023-04-07T06:16:53;101491.34;;;16.48;28.01
59409;BME280;45213;32.654;-115.458;2023-04-07T06:19:19;101491.41;;;16.41;27.59
59409;BME280;45213;32.654;-115.458;2023-04-07T06:21:46;101487.91;;;16.34;27.28
59409;BME280;45213;32.654;-115.458;2023-04-07T06:24:13;101491.47;;;16.28;27.41
59409;BME280;45213;32.654;-115.458;2023-04-07T06:26:40;101480.94;;;16.33;27.75
59409;BME280;45213;32.654;-115.458;2023-04-07T06:29:06;101484.44;;;16.34;27.44
59409;BME280;45213;32.654;-115.458;2023-04-07T06:31:33;101487.06;;;16.34;27.92
59409;BME280;45213;32.654;-115.458;2023-04-07T06:33:59;101487.94;;;16.25;28.00
59409;BME280;45213;32.654;-115.458;2023-04-07T06:36:26;101483.59;;;16.18;28.03
59409;BME280;45213;32.654;-115.458;2023-04-07T06:38:54;101471.34;;;16.15;27.51
59409;BME280;45213;32.654;-115.458;2023-04-07T06:41:20;101484.47;;;16.20;27.82
59409;BME280;45213;32.654;-115.458;2023-04-07T06:43:48;101480.97;;;16.18;27.32
59409;BME280;45213;32.654;-115.458;2023-04-07T06:46:17;101477.47;;;16.16;28.03
59409;BME280;45213;32.654;-115.458;2023-04-07T06:48:43;101479.22;;;16.14;28.96
59409;BME280;45213;32.654;-115.458;2023-04-07T06:51:10;101486.25;;;16.10;29.70
59409;BME280;45213;32.654;-115.458;2023-04-07T06:53:37;101481.88;;;16.03;28.68
59409;BME280;45213;32.654;-115.458;2023-04-07T06:56:08;101481.91;;;16.00;28.54
59409;BME280;45213;32.654;-115.458;2023-04-07T06:58:36;101480.16;;;15.94;29.07
59409;BME280;45213;32.654;-115.458;2023-04-07T07:01:03;101477.53;;;15.86;28.68
59409;BME280;45213;32.654;-115.458;2023-04-07T07:03:31;101480.16;;;15.85;27.84
59409;BME280;45213;32.654;-115.458;2023-04-07T07:05:58;101480.16;;;15.88;28.53
59409;BME280;45213;32.654;-115.458;2023-04-07T07:08:25;101479.28;;;15.86;28.96
59409;BME280;45213;32.654;-115.458;2023-04-07T07:10:53;101474.94;;;15.79;28.73
59409;BME280;45213;32.654;-115.458;2023-04-07T07:13:22;101478.44;;;15.81;27.71
59409;BME280;45213;32.654;-115.458;2023-04-07T07:15:49;101479.28;;;15.80;27.21
59409;BME280;45213;32.654;-115.458;2023-04-07T07:18:17;101479.28;;;15.64;28.28
59409;BME280;45213;32.654;-115.458;2023-04-07T07:20:44;101472.31;;;15.60;28.33
59409;BME280;45213;32.654;-115.458;2023-04-07T07:23:11;101481.06;;;15.58;28.50
59409;BME280;45213;32.654;-115.458;2023-04-07T07:25:37;101474.91;;;15.54;27.87
59409;BME280;45213;32.654;-115.458;2023-04-07T07:28:04;101475.78;;;15.50;27.31
59409;BME280;45213;32.654;-115.458;2023-04-07T07:30:30;101468.81;;;15.49;26.35
59409;BME280;45213;32.654;-115.458;2023-04-07T07:32:57;101467.94;;;15.47;25.48
59409;BME280;45213;32.654;-115.458;2023-04-07T07:35:23;101468.81;;;15.54;25.31
59409;BME280;45213;32.654;-115.458;2023-04-07T07:37:51;101474.91;;;15.54;25.83
59409;BME280;45213;32.654;-115.458;2023-04-07T07:40:18;101468.81;;;15.54;26.52
59409;BME280;45213;32.654;-115.458;2023-04-07T07:42:45;101471.41;;;15.46;25.41
59409;BME280;45213;32.654;-115.458;2023-04-07T07:45:12;101471.41;;;15.46;26.21
59409;BME280;45213;32.654;-115.458;2023-04-07T07:47:39;101469.66;;;15.50;24.81
59409;BME280;45213;32.654;-115.458;2023-04-07T07:50:06;101465.28;;;15.50;25.19
59409;BME280;45213;32.654;-115.458;2023-04-07T07:52:33;101465.31;;;15.47;26.04
59409;BME280;45213;32.654;-115.458;2023-04-07T07:54:59;101453.03;;;15.37;26.82
59409;BME280;45213;32.654;-115.458;2023-04-07T07:57:26;101463.53;;;15.41;25.74
59409;BME280;45213;32.654;-115.458;2023-04-07T07:59:52;101467.03;;;15.39;24.92
59409;BME280;45213;32.654;-115.458;2023-04-07T08:02:19;101462.66;;;15.30;25.18
59409;BME280;45213;32.654;-115.458;2023-04-07T08:04:46;101467.03;;;15.25;25.04
59409;BME280;45213;32.654;-115.458;2023-04-07T08:07:12;101463.53;;;15.18;24.35
59409;BME280;45213;32.654;-115.458;2023-04-07T08:09:39;101465.28;;;15.13;23.84
59409;BME280;45213;32.654;-115.458;2023-04-07T08:12:06;101460.06;;;15.19;24.71
59409;BME280;45213;32.654;-115.458;2023-04-07T08:14:32;101451.31;;;15.08;24.07
59409;BME280;45213;32.654;-115.458;2023-04-07T08:16:59;101461.78;;;15.11;24.40
59409;BME280;45213;32.654;-115.458;2023-04-07T08:19:25;101455.66;;;15.08;24.88
59409;BME280;45213;32.654;-115.458;2023-04-07T08:21:52;101460.03;;;14.99;23.90
59409;BME280;45213;32.654;-115.458;2023-04-07T08:24:18;101455.66;;;14.95;23.83
59409;BME280;45213;32.654;-115.458;2023-04-07T08:26:45;101459.16;;;14.97;24.51
59409;BME280;45213;32.654;-115.458;2023-04-07T08:29:12;101448.66;;;15.02;24.47
59409;BME280;45213;32.654;-115.458;2023-04-07T08:31:38;101455.66;;;15.01;23.56
59409;BME280;45213;32.654;-115.458;2023-04-07T08:34:06;101445.16;;;14.97;24.05
59409;BME280;45213;32.654;-115.458;2023-04-07T08:36:32;101445.13;;;14.89;23.55
59409;BME280;45213;32.654;-115.458;2023-04-07T08:38:59;101442.50;;;14.85;24.55
59409;BME280;45213;32.654;-115.458;2023-04-07T08:41:38;101446.00;;;14.77;24.49
59409;BME280;45213;32.654;-115.458;2023-04-07T08:44:09;101434.63;;;14.72;24.37
59409;BME280;45213;32.654;-115.458;2023-04-07T08:46:40;101445.09;;;14.69;24.06
59409;BME280;45213;32.654;-115.458;2023-04-07T08:49:08;101439.00;;;14.78;24.15
59409;BME280;45213;32.654;-115.458;2023-04-07T08:51:37;101434.66;;;14.78;24.65
59409;BME280;45213;32.654;-115.458;2023-04-07T08:54:14;101435.50;;;14.76;23.98
59409;BME280;45213;32.654;-115.458;2023-04-07T08:56:42;101444.22;;;14.70;23.17
59409;BME280;45213;32.654;-115.458;2023-04-07T08:59:13;101432.00;;;14.77;21.51
59409;BME280;45213;32.654;-115.458;2023-04-07T09:01:40;101437.25;;;14.80;20.94
59409;BME280;45213;32.654;-115.458;2023-04-07T09:04:08;101433.75;;;14.82;21.82
59409;BME280;45213;32.654;-115.458;2023-04-07T09:06:36;101434.63;;;14.80;22.95
59409;BME280;45213;32.654;-115.458;2023-04-07T09:09:03;101440.75;;;14.77;23.89
59409;BME280;45213;32.654;-115.458;2023-04-07T09:11:37;101432.00;;;14.77;24.06
59409;BME280;45213;32.654;-115.458;2023-04-07T09:14:03;101436.38;;;14.73;23.06
59409;BME280;45213;32.654;-115.458;2023-04-07T09:16:30;101429.38;;;14.71;22.29
59409;BME280;45213;32.654;-115.458;2023-04-07T09:18:58;101436.38;;;14.70;22.06
59409;BME280;45213;32.654;-115.458;2023-04-07T09:21:25;101430.25;;;14.71;22.69
59409;BME280;45213;32.654;-115.458;2023-04-07T09:23:52;101430.22;;;14.67;21.37
59409;BME280;45213;32.654;-115.458;2023-04-07T09:26:22;101438.13;;;14.70;20.87
59409;BME280;45213;32.654;-115.458;2023-04-07T09:29:00;101442.47;;;14.69;19.98
59409;BME280;45213;32.654;-115.458;2023-04-07T09:31:46;101435.47;;;14.71;20.89
59409;BME280;45213;32.654;-115.458;2023-04-07T09:34:41;101419.75;;;14.59;21.64
59409;BME280;45213;32.654;-115.458;2023-04-07T09:37:07;101435.41;;;14.53;22.72
59409;BME280;45213;32.654;-115.458;2023-04-07T09:39:50;101437.97;;;14.39;23.67
59409;BME280;45213;32.654;-115.458;2023-04-07T09:42:19;101437.97;;;14.31;23.76
59409;BME280;45213;32.654;-115.458;2023-04-07T09:44:45;101437.91;;;14.24;24.43
59409;BME280;45213;32.654;-115.458;2023-04-07T09:47:12;101424.75;;;14.07;25.38
59409;BME280;45213;32.654;-115.458;2023-04-07T09:49:49;101429.94;;;14.00;25.44
59409;BME280;45213;32.654;-115.458;2023-04-07T09:52:23;101429.06;;;13.98;25.02
59409;BME280;45213;32.654;-115.458;2023-04-07T09:54:52;101436.94;;;14.00;24.52
59409;BME280;45213;32.654;-115.458;2023-04-07T09:57:20;101431.69;;;13.98;24.67
59409;BME280;45213;32.654;-115.458;2023-04-07T09:59:48;101430.78;;;13.96;25.24
59409;BME280;45213;32.654;-115.458;2023-04-07T10:02:16;101424.66;;;13.88;25.73
59409;BME280;45213;32.654;-115.458;2023-04-07T10:04:43;101424.63;;;13.85;25.57
59409;BME280;45213;32.654;-115.458;2023-04-07T10:07:10;101434.25;;;13.83;25.34
59409;BME280;45213;32.654;-115.458;2023-04-07T10:09:37;101434.19;;;13.77;26.01
59409;BME280;45213;32.654;-115.458;2023-04-07T10:12:04;101438.44;;;13.60;26.14
59409;BME280;45213;32.654;-115.458;2023-04-07T10:14:32;101440.94;;;13.46;26.66
59409;BME280;45213;32.654;-115.458;2023-04-07T10:17:00;101440.06;;;13.42;25.84
59409;BME280;45213;32.654;-115.458;2023-04-07T10:19:31;101442.69;;;13.48;26.85
59409;BME280;45213;32.654;-115.458;2023-04-07T10:22:01;101443.53;;;13.44;26.54
59409;BME280;45213;32.654;-115.458;2023-04-07T10:25:10;101446.09;;;13.35;26.23
59409;BME280;45213;32.654;-115.458;2023-04-07T10:27:51;101450.38;;;13.27;27.08
59409;BME280;45213;32.654;-115.458;2023-04-07T10:30:24;101453.78;;;13.20;27.23
59409;BME280;45213;32.654;-115.458;2023-04-07T10:32:54;101449.44;;;13.20;27.62
59409;BME280;45213;32.654;-115.458;2023-04-07T10:35:21;101451.22;;;13.24;26.92
59409;BME280;45213;32.654;-115.458;2023-04-07T10:40:34;101459.78;;;13.09;27.63
59409;BME280;45213;32.654;-115.458;2023-04-07T10:43:01;101453.63;;;13.04;28.11
59409;BME280;45213;32.654;-115.458;2023-04-07T10:48:19;101444.09;;;13.12;26.10
59409;BME280;45213;32.654;-115.458;2023-04-07T10:53:35;101445.09;;;13.24;24.36
59409;BME280;45213;32.654;-115.458;2023-04-07T10:56:03;101445.25;;;13.36;24.04
59409;BME280;45213;32.654;-115.458;2023-04-07T10:58:31;101443.53;;;13.44;24.20
59409;BME280;45213;32.654;-115.458;2023-04-07T11:03:50;101453.09;;;13.36;25.10
59409;BME280;45213;32.654;-115.458;2023-04-07T11:06:17;101460.94;;;13.36;24.88
59409;BME280;45213;32.654;-115.458;2023-04-07T11:08:46;101461.88;;;13.46;24.13
59409;BME280;45213;32.654;-115.458;2023-04-07T11:11:35;101451.47;;;13.55;23.99
59409;BME280;45213;32.654;-115.458;2023-04-07T11:14:05;101453.31;;;13.68;24.06
59409;BME280;45213;32.654;-115.458;2023-04-07T11:16:44;101454.25;;;13.75;23.16
59409;BME280;45213;32.654;-115.458;2023-04-07T11:19:11;101449.00;;;13.78;23.31
59409;BME280;45213;32.654;-115.458;2023-04-07T11:21:38;101451.66;;;13.79;23.22
59409;BME280;45213;32.654;-115.458;2023-04-07T11:24:05;101447.25;;;13.75;23.09
59409;BME280;45213;32.654;-115.458;2023-04-07T11:26:37;101447.22;;;13.71;22.43
59409;BME280;45213;32.654;-115.458;2023-04-07T11:29:04;101445.50;;;13.73;22.45
59409;BME280;45213;32.654;-115.458;2023-04-07T11:31:31;101449.81;;;13.69;22.46
59409;BME280;45213;32.654;-115.458;2023-04-07T11:34:00;101443.72;;;13.69;22.46
59409;BME280;45213;32.654;-115.458;2023-04-07T11:36:28;101444.59;;;13.69;22.70
59409;BME280;45213;32.654;-115.458;2023-04-07T11:38:55;101443.78;;;13.75;22.71
59409;BME280;45213;32.654;-115.458;2023-04-07T11:41:23;101442.06;;;13.80;23.41
59409;BME280;45213;32.654;-115.458;2023-04-07T11:44:12;101434.16;;;13.75;23.21
59409;BME280;45213;32.654;-115.458;2023-04-07T11:47:00;101436.81;;;13.74;23.64
59409;BME280;45213;32.654;-115.458;2023-04-07T11:49:30;101431.56;;;13.74;24.63
59409;BME280;45213;32.654;-115.458;2023-04-07T11:52:05;101430.63;;;13.66;24.64
59409;BME280;45213;32.654;-115.458;2023-04-07T11:54:42;101434.94;;;13.62;24.67
59409;BME280;45213;32.654;-115.458;2023-04-07T11:57:12;101430.59;;;13.61;23.44
59409;BME280;45213;32.654;-115.458;2023-04-07T11:59:39;101431.44;;;13.58;23.27
59409;BME280;45213;32.654;-115.458;2023-04-07T12:02:06;101436.69;;;13.58;24.25
59409;BME280;45213;32.654;-115.458;2023-04-07T12:04:33;101432.25;;;13.48;23.90
59409;BME280;45213;32.654;-115.458;2023-04-07T12:07:08;101433.94;;;13.43;23.35
59409;BME280;45213;32.654;-115.458;2023-04-07T12:09:36;101434.84;;;13.45;23.35
59409;BME280;45213;32.654;-115.458;2023-04-07T12:12:04;101433.13;;;13.47;23.20
59409;BME280;45213;32.654;-115.458;2023-04-07T12:14:33;101442.75;;;13.51;23.60
59409;BME280;45213;32.654;-115.458;2023-04-07T12:16:59;101434.00;;;13.48;24.37
59409;BME280;45213;32.654;-115.458;2023-04-07T12:19:31;101437.47;;;13.48;24.87
59409;BME280;45213;32.654;-115.458;2023-04-07T12:22:00;101427.00;;;13.45;26.53
59409;BME280;45213;32.654;-115.458;2023-04-07T12:24:27;101427.81;;;13.40;25.35
59409;BME280;45213;32.654;-115.458;2023-04-07T12:26:54;101432.09;;;13.30;24.81
59409;BME280;45213;32.654;-115.458;2023-04-07T12:29:21;101436.47;;;13.29;24.49
59409;BME280;45213;32.654;-115.458;2023-04-07T12:31:47;101452.25;;;13.40;24.04
59409;BME280;45213;32.654;-115.458;2023-04-07T12:34:14;101441.78;;;13.40;24.29
59409;BME280;45213;32.654;-115.458;2023-04-07T12:36:41;101446.16;;;13.44;22.92
59409;BME280;45213;32.654;-115.458;2023-04-07T12:39:08;101454.03;;;13.49;22.91
59409;BME280;45213;32.654;-115.458;2023-04-07T12:41:35;101450.56;;;13.48;22.99
59409;BME280;45213;32.654;-115.458;2023-04-07T12:44:03;101459.16;;;13.35;23.15
59409;BME280;45213;32.654;-115.458;2023-04-07T12:46:30;101459.91;;;13.22;23.31
59409;BME280;45213;32.654;-115.458;2023-04-07T12:48:56;101466.00;;;13.21;23.88